createdAt,value
2018-09-06T00:01:42.850Z,11.60
2018-09-06T00:04:13.955Z,11.70
2018-09-06T00:06:44.217Z,11.70
2018-09-06T00:09:15.160Z,11.70
2018-09-06T00:11:46.030Z,11.70
2018-09-06T00:14:16.326Z,11.70
2018-09-06T00:16:46.992Z,11.70
2018-09-06T00:19:18.123Z,11.70
2018-09-06T00:21:49.021Z,11.70
2018-09-06T00:24:19.261Z,11.70
2018-09-06T00:26:49.426Z,11.70
2018-09-06T00:29:20.795Z,11.70
2018-09-06T00:31:51.678Z,11.70
2018-09-06T00:34:21.921Z,11.60
2018-09-06T00:36:51.960Z,11.60
2018-09-06T00:39:22.927Z,11.50
2018-09-06T00:41:53.786Z,11.50
2018-09-06T00:44:24.154Z,11.40
2018-09-06T00:46:54.367Z,11.30
2018-09-06T00:49:25.404Z,11.30
2018-09-06T00:51:56.206Z,11.30
2018-09-06T00:54:26.595Z,11.30
2018-09-06T00:56:56.980Z,11.30
2018-09-06T00:59:27.966Z,11.20
2018-09-06T01:01:58.924Z,11.20
2018-09-06T01:04:29.341Z,11.20
2018-09-06T01:06:59.643Z,11.20
2018-09-06T01:09:30.590Z,11.20
2018-09-06T01:12:01.612Z,11.20
2018-09-06T01:14:31.889Z,11.20
2018-09-06T01:17:02.532Z,11.20
2018-09-06T01:19:33.427Z,11.10
2018-09-06T01:22:04.308Z,11.00
2018-09-06T01:24:34.453Z,11.00
2018-09-06T01:27:04.784Z,11.00
2018-09-06T01:29:35.700Z,11.00
2018-09-06T01:32:06.820Z,11.10
2018-09-06T01:34:37.101Z,11.10
2018-09-06T01:37:09.048Z,11.10
2018-09-06T01:39:41.050Z,11.10
2018-09-06T01:42:12.038Z,11.10
2018-09-06T01:44:42.479Z,11.10
2018-09-06T01:47:12.810Z,11.10
2018-09-06T01:49:43.850Z,11.10
2018-09-06T01:52:16.335Z,11.10
2018-09-06T01:54:46.430Z,11.00
2018-09-06T01:57:17.282Z,11.00
2018-09-06T01:59:48.250Z,11.00
2018-09-06T02:02:18.616Z,11.00
2018-09-06T02:04:49.063Z,10.90
2018-09-06T02:07:19.837Z,10.80
2018-09-06T02:09:50.791Z,10.80
2018-09-06T02:12:20.922Z,10.80
2018-09-06T02:14:51.308Z,10.80
2018-09-06T02:17:22.203Z,10.90
2018-09-06T02:19:53.066Z,10.90
2018-09-06T02:22:23.138Z,10.80
2018-09-06T02:24:53.486Z,10.80
2018-09-06T02:27:24.863Z,10.80
2018-09-06T02:29:55.931Z,10.90
2018-09-06T02:32:26.119Z,10.90
2018-09-06T02:34:56.377Z,10.90
2018-09-06T02:37:27.442Z,11.00
2018-09-06T02:39:58.380Z,11.00
2018-09-06T02:42:28.514Z,11.00
2018-09-06T02:44:58.852Z,11.00
2018-09-06T02:47:29.654Z,11.00
2018-09-06T02:50:06.307Z,11.00
2018-09-06T02:52:36.424Z,11.00
2018-09-06T02:55:06.608Z,11.10
2018-09-06T02:57:37.636Z,11.10
2018-09-06T03:00:08.768Z,11.10
2018-09-06T03:02:38.878Z,11.10
2018-09-06T03:05:09.271Z,11.10
2018-09-06T03:07:40.260Z,11.10
2018-09-06T03:10:11.000Z,11.10
2018-09-06T03:12:41.347Z,11.00
2018-09-06T03:15:11.548Z,11.00
2018-09-06T03:17:42.618Z,11.10
2018-09-06T03:20:13.214Z,11.20
2018-09-06T03:22:43.499Z,11.20
2018-09-06T03:25:14.412Z,11.30
2018-09-06T03:27:45.418Z,11.30
2018-09-06T03:30:16.443Z,11.30
2018-09-06T03:32:46.706Z,11.30
2018-09-06T03:35:17.571Z,11.20
2018-09-06T03:37:48.384Z,11.20
2018-09-06T03:40:18.724Z,11.20
2018-09-06T03:42:48.994Z,11.20
2018-09-06T03:45:20.011Z,11.20
2018-09-06T03:47:50.783Z,11.20
2018-09-06T03:50:21.498Z,11.30
2018-09-06T03:52:52.304Z,11.30
2018-09-06T03:55:23.224Z,11.40
2018-09-06T03:57:54.129Z,11.40
2018-09-06T04:00:24.532Z,11.40
2018-09-06T04:02:54.768Z,11.40
2018-09-06T04:05:26.358Z,11.40
2018-09-06T04:07:57.190Z,11.50
2018-09-06T04:10:27.401Z,11.50
2018-09-06T04:12:58.116Z,11.50
2018-09-06T04:15:29.013Z,11.40
2018-09-06T04:18:00.091Z,11.40
2018-09-06T04:20:30.585Z,11.40
2018-09-06T04:23:01.047Z,11.30
2018-09-06T04:25:31.803Z,11.40
2018-09-06T04:28:02.789Z,11.40
2018-09-06T04:30:33.406Z,11.50
2018-09-06T04:33:03.835Z,11.60
2018-09-06T04:35:34.962Z,11.70
2018-09-06T04:38:06.525Z,11.80
2018-09-06T04:40:36.935Z,11.80
2018-09-06T04:43:08.759Z,11.90
2018-09-06T04:45:40.167Z,11.90
2018-09-06T04:48:11.143Z,11.90
2018-09-06T04:50:41.725Z,12.00
2018-09-06T04:53:11.960Z,12.00
2018-09-06T04:55:42.902Z,12.00
2018-09-06T04:58:14.205Z,12.10
2018-09-06T05:00:44.611Z,12.10
2018-09-06T05:03:15.051Z,12.10
2018-09-06T05:05:46.625Z,12.10
2018-09-06T05:08:17.161Z,12.10
2018-09-06T05:10:48.889Z,12.10
2018-09-06T05:13:20.080Z,12.00
2018-09-06T05:15:51.230Z,12.00
2018-09-06T05:18:21.687Z,12.00
2018-09-06T05:20:53.282Z,12.10
2018-09-06T05:23:24.356Z,12.10
2018-09-06T05:25:55.354Z,12.20
2018-09-06T05:28:25.650Z,12.20
2018-09-06T05:30:56.089Z,12.30
2018-09-06T05:33:27.055Z,12.40
2018-09-06T05:35:58.103Z,12.50
2018-09-06T05:38:28.569Z,12.60
2018-09-06T05:40:58.973Z,12.60
2018-09-06T05:43:30.571Z,12.80
2018-09-06T05:46:01.674Z,12.90
2018-09-06T05:48:33.496Z,13.10
2018-09-06T05:51:03.829Z,13.20
2018-09-06T05:53:35.473Z,13.20
2018-09-06T05:56:06.720Z,13.40
2018-09-06T05:58:37.141Z,13.50
2018-09-06T06:01:07.818Z,13.80
2018-09-06T06:03:38.997Z,14.20
2018-09-06T06:06:10.333Z,14.70
2018-09-06T06:08:44.192Z,15.30
2018-09-06T06:11:14.675Z,15.90
2018-09-06T06:13:46.251Z,16.50
2018-09-06T06:16:18.395Z,17.00
2018-09-06T06:18:49.218Z,17.40
2018-09-06T06:21:21.329Z,17.90
2018-09-06T06:23:52.955Z,18.10
2018-09-06T06:26:23.995Z,18.50
2018-09-06T06:28:55.063Z,18.80
2018-09-06T06:31:26.651Z,19.10
2018-09-06T06:33:58.794Z,19.30
2018-09-06T06:36:30.083Z,19.50
2018-09-06T06:39:01.240Z,19.90
2018-09-06T06:41:33.469Z,20.10
2018-09-06T06:44:05.572Z,20.30
2018-09-06T06:46:37.127Z,20.70
2018-09-06T06:49:08.379Z,20.90
2018-09-06T06:51:40.061Z,20.90
2018-09-06T06:54:12.393Z,20.90
2018-09-06T06:56:43.288Z,21.10
2018-09-06T06:59:15.191Z,21.10
2018-09-06T07:01:46.926Z,21.30
2018-09-06T07:04:17.921Z,21.50
2018-09-06T07:06:49.178Z,21.70
2018-09-06T07:09:20.928Z,21.80
2018-09-06T07:11:52.651Z,22.10
2018-09-06T07:14:24.084Z,22.20
2018-09-06T07:16:55.474Z,22.30
2018-09-06T07:19:26.973Z,22.30
2018-09-06T07:21:58.682Z,22.40
2018-09-06T07:24:29.984Z,22.50
2018-09-06T07:27:00.885Z,22.60
2018-09-06T07:29:32.465Z,22.80
2018-09-06T07:32:04.161Z,22.90
2018-09-06T07:34:36.684Z,23.10
2018-09-06T07:37:07.715Z,23.40
2018-09-06T07:39:39.380Z,23.50
2018-09-06T07:42:11.069Z,23.70
2018-09-06T07:44:41.981Z,23.80
2018-09-06T07:47:13.784Z,23.80
2018-09-06T07:49:45.454Z,23.90
2018-09-06T07:52:16.533Z,24.10
2018-09-06T07:54:47.682Z,24.40
2018-09-06T07:57:19.880Z,24.70
2018-09-06T07:59:52.304Z,24.90
2018-09-06T08:02:22.973Z,25.20
2018-09-06T08:04:54.145Z,25.30
2018-09-06T08:07:25.692Z,25.40
2018-09-06T08:09:57.195Z,25.20
2018-09-06T08:12:28.128Z,25.20
2018-09-06T08:14:59.450Z,25.10
2018-09-06T08:17:32.414Z,25.00
2018-09-06T08:20:06.773Z,25.00
2018-09-06T08:22:38.451Z,25.30
2018-09-06T08:25:09.940Z,25.70
2018-09-06T08:27:41.386Z,25.80
2018-09-06T08:30:13.049Z,25.80
2018-09-06T08:32:43.990Z,25.80
2018-09-06T08:35:14.931Z,25.90
2018-09-06T08:37:46.303Z,26.00
2018-09-06T08:40:17.384Z,26.30
2018-09-06T08:42:48.159Z,26.40
2018-09-06T08:45:20.284Z,26.80
2018-09-06T08:47:51.854Z,26.90
2018-09-06T08:50:22.623Z,26.90
2018-09-06T08:52:53.208Z,27.00
2018-09-06T08:55:24.740Z,27.20
2018-09-06T08:57:56.349Z,27.70
2018-09-06T09:00:26.738Z,27.80
2018-09-06T09:02:57.738Z,27.70
2018-09-06T09:05:29.155Z,27.60
2018-09-06T09:08:00.674Z,27.30
2018-09-06T09:10:33.005Z,27.20
2018-09-06T09:13:03.674Z,27.00
2018-09-06T09:15:35.823Z,26.80
2018-09-06T09:18:07.037Z,26.90
2018-09-06T09:20:37.804Z,26.80
2018-09-06T09:23:09.531Z,26.70
2018-09-06T09:25:41.055Z,26.90
2018-09-06T09:28:14.279Z,27.10
2018-09-06T09:30:44.963Z,27.40
2018-09-06T09:33:16.787Z,27.60
2018-09-06T09:35:50.363Z,27.70
2018-09-06T09:38:21.486Z,27.90
2018-09-06T09:40:52.634Z,28.10
2018-09-06T09:43:24.190Z,28.20
2018-09-06T09:48:25.716Z,28.10
2018-09-06T09:50:56.914Z,28.00
2018-09-06T09:53:29.467Z,27.90
2018-09-06T09:56:01.530Z,27.60
2018-09-06T09:58:32.109Z,27.70
2018-09-06T10:01:02.818Z,27.80
2018-09-06T10:03:39.965Z,28.10
2018-09-06T10:06:15.295Z,28.30
2018-09-06T10:08:51.523Z,28.20
2018-09-06T10:11:23.443Z,28.20
2018-09-06T10:13:55.030Z,28.30
2018-09-06T10:16:25.692Z,28.30
2018-09-06T10:18:57.756Z,28.40
2018-09-06T10:21:29.034Z,28.10
2018-09-06T10:24:00.659Z,28.10
2018-09-06T10:26:31.926Z,28.00
2018-09-06T10:29:02.657Z,28.00
2018-09-06T10:31:34.528Z,27.80
2018-09-06T10:34:06.311Z,27.30
2018-09-06T10:36:36.870Z,26.90
2018-09-06T10:39:09.643Z,26.40
2018-09-06T10:41:41.088Z,26.40
2018-09-06T10:44:12.140Z,26.80
2018-09-06T10:46:42.941Z,27.30
2018-09-06T10:49:13.882Z,27.60
2018-09-06T10:51:45.095Z,27.60
2018-09-06T10:54:16.189Z,27.20
2018-09-06T10:56:47.075Z,26.90
2018-09-06T10:59:18.490Z,26.50
2018-09-06T11:01:50.329Z,26.10
2018-09-06T11:04:31.400Z,25.90
2018-09-06T11:07:06.974Z,25.80
2018-09-06T11:09:44.517Z,25.90
2018-09-06T11:12:16.972Z,25.90
2018-09-06T11:14:47.879Z,25.90
2018-09-06T11:17:25.939Z,26.00
2018-09-06T11:19:59.908Z,25.90
2018-09-06T11:22:31.341Z,25.80
2018-09-06T11:25:04.081Z,25.80
2018-09-06T11:27:36.101Z,25.60
2018-09-06T11:30:08.479Z,25.40
2018-09-06T11:32:40.227Z,25.30
2018-09-06T11:35:13.719Z,25.30
2018-09-06T11:37:46.970Z,25.30
2018-09-06T11:40:18.379Z,25.10
2018-09-06T11:42:49.554Z,25.00
2018-09-06T11:45:22.477Z,24.90
2018-09-06T11:47:54.239Z,24.90
2018-09-06T11:50:25.498Z,24.90
2018-09-06T11:52:56.575Z,24.80
2018-09-06T11:55:34.027Z,24.70
2018-09-06T11:58:06.097Z,24.70
2018-09-06T12:00:39.532Z,24.50
2018-09-06T12:03:11.467Z,24.40
2018-09-06T12:05:43.446Z,24.40
2018-09-06T12:08:15.389Z,24.40
2018-09-06T12:10:46.593Z,24.40
2018-09-06T12:13:18.902Z,24.30
2018-09-06T12:15:52.146Z,24.40
2018-09-06T12:18:23.032Z,24.30
2018-09-06T12:20:54.354Z,24.30
2018-09-06T12:23:26.031Z,24.60
2018-09-06T12:25:57.810Z,24.80
2018-09-06T12:28:30.275Z,24.80
2018-09-06T12:31:01.654Z,24.80
2018-09-06T12:33:33.465Z,24.70
2018-09-06T12:36:05.456Z,24.60
2018-09-06T12:38:36.623Z,24.60
2018-09-06T12:41:07.760Z,24.50
2018-09-06T12:43:39.012Z,24.50
2018-09-06T12:46:10.202Z,25.10
2018-09-06T12:48:41.154Z,25.80
2018-09-06T12:51:12.758Z,26.50
2018-09-06T12:53:45.503Z,27.20
2018-09-06T12:56:16.334Z,27.50
2018-09-06T12:58:47.418Z,27.70
2018-09-06T13:01:17.844Z,27.90
2018-09-06T13:03:50.098Z,27.60
2018-09-06T13:06:21.158Z,27.30
2018-09-06T13:08:52.552Z,27.30
2018-09-06T13:11:24.194Z,27.40
2018-09-06T13:13:55.763Z,27.90
2018-09-06T13:16:28.000Z,28.50
2018-09-06T13:18:58.647Z,28.80
2018-09-06T13:21:30.078Z,28.50
2018-09-06T13:24:01.342Z,28.20
2018-09-06T13:26:31.838Z,28.20
2018-09-06T13:29:02.603Z,27.90
2018-09-06T13:31:34.167Z,27.70
2018-09-06T13:34:05.469Z,27.60
2018-09-06T13:36:36.199Z,27.40
2018-09-06T13:39:08.997Z,26.90
2018-09-06T13:41:40.766Z,26.40
2018-09-06T13:44:11.588Z,25.90
2018-09-06T13:46:42.658Z,25.50
2018-09-06T13:49:13.348Z,25.30
2018-09-06T13:51:45.025Z,25.20
2018-09-06T13:54:16.150Z,25.00
2018-09-06T13:56:47.132Z,24.90
2018-09-06T13:59:18.758Z,24.80
2018-09-06T14:01:50.523Z,24.80
2018-09-06T14:04:21.566Z,24.90
2018-09-06T14:06:52.582Z,24.90
2018-09-06T14:09:24.457Z,24.90
2018-09-06T14:11:56.163Z,24.90
2018-09-06T14:14:27.210Z,25.00
2018-09-06T14:16:58.161Z,25.10
2018-09-06T14:19:29.711Z,25.10
2018-09-06T14:22:01.712Z,25.00
2018-09-06T14:24:33.982Z,25.00
2018-09-06T14:27:07.805Z,25.00
2018-09-06T14:29:39.854Z,24.90
2018-09-06T14:32:10.922Z,24.90
2018-09-06T14:34:42.079Z,24.90
2018-09-06T14:37:13.795Z,25.00
2018-09-06T14:39:45.789Z,25.20
2018-09-06T14:42:17.504Z,25.60
2018-09-06T14:44:49.315Z,25.80
2018-09-06T14:47:21.043Z,25.80
2018-09-06T14:49:53.876Z,25.80
2018-09-06T14:52:28.727Z,25.70
2018-09-06T14:55:01.078Z,25.60
2018-09-06T14:57:32.820Z,25.50
2018-09-06T15:00:04.494Z,25.30
2018-09-06T15:02:35.381Z,25.20
2018-09-06T15:05:07.440Z,25.20
2018-09-06T15:07:38.471Z,25.20
2018-09-06T15:10:12.204Z,25.20
2018-09-06T15:12:42.947Z,25.30
2018-09-06T15:15:14.929Z,25.30
2018-09-06T15:17:46.223Z,25.30
2018-09-06T15:20:17.107Z,25.20
2018-09-06T15:22:49.417Z,25.10
2018-09-06T15:25:21.179Z,25.10
2018-09-06T15:27:53.294Z,25.10
2018-09-06T15:30:23.950Z,25.20
2018-09-06T15:32:54.920Z,25.30
2018-09-06T15:35:26.767Z,25.30
2018-09-06T15:37:58.751Z,25.30
2018-09-06T15:40:31.937Z,25.30
2018-09-06T15:43:03.170Z,25.40
2018-09-06T15:45:34.838Z,25.40
2018-09-06T15:48:06.439Z,25.40
2018-09-06T15:50:37.120Z,25.50
2018-09-06T15:53:08.214Z,25.60
2018-09-06T15:55:38.169Z,25.70
2018-09-06T15:58:08.510Z,25.70
2018-09-06T16:00:40.663Z,25.60
2018-09-06T16:03:11.689Z,25.30
2018-09-06T16:05:44.361Z,25.10
2018-09-06T16:10:17.776Z,24.50
2018-09-06T16:12:48.587Z,24.40
2018-09-06T16:15:20.589Z,24.20
2018-09-06T16:17:52.829Z,24.10
2018-09-06T16:20:23.703Z,24.00
2018-09-06T16:22:56.074Z,24.00
2018-09-06T16:25:28.990Z,23.90
2018-09-06T16:28:00.520Z,23.80
2018-09-06T16:30:32.972Z,23.80
2018-09-06T16:33:03.904Z,23.60
2018-09-06T16:35:35.621Z,23.50
2018-09-06T16:38:07.373Z,23.40
2018-09-06T16:40:38.788Z,23.20
2018-09-06T16:43:09.860Z,23.10
2018-09-06T16:45:41.552Z,23.00
2018-09-06T16:48:12.683Z,22.80
2018-09-06T16:50:43.957Z,22.80
2018-09-06T16:53:16.136Z,22.70
2018-09-06T16:55:48.250Z,22.60
2018-09-06T16:58:20.349Z,22.40
2018-09-06T17:00:51.546Z,22.20
2018-09-06T17:03:23.494Z,22.00
2018-09-06T17:05:55.868Z,21.80
2018-09-06T17:08:27.039Z,21.60
2018-09-06T17:10:58.965Z,21.40
2018-09-06T17:13:31.299Z,21.20
2018-09-06T17:16:02.192Z,21.00
2018-09-06T17:18:32.878Z,20.80
2018-09-06T17:21:04.543Z,20.60
2018-09-06T17:23:36.163Z,20.50
2018-09-06T17:26:08.017Z,20.20
2018-09-06T17:28:39.259Z,20.00
2018-09-06T17:31:10.332Z,19.80
2018-09-06T17:33:40.521Z,19.70
2018-09-06T17:36:10.705Z,19.50
2018-09-06T17:38:40.973Z,19.40
2018-09-06T17:41:12.373Z,19.20
2018-09-06T17:43:42.526Z,19.00
2018-09-06T17:46:13.739Z,18.90
2018-09-06T17:48:44.801Z,18.70
2018-09-06T17:51:15.898Z,18.60
2018-09-06T17:53:47.736Z,18.40
2018-09-06T17:56:18.793Z,18.30
2018-09-06T17:58:49.864Z,18.20
2018-09-06T18:01:39.568Z,18.00
2018-09-06T18:04:11.051Z,17.90
2018-09-06T18:06:42.075Z,17.70
2018-09-06T18:09:14.519Z,17.60
2018-09-06T18:11:45.905Z,17.50
2018-09-06T18:17:12.667Z,17.20
2018-09-06T18:20:02.413Z,17.10
2018-09-06T18:22:37.077Z,16.90
2018-09-06T18:25:40.317Z,16.80
2018-09-06T18:28:28.097Z,16.70
2018-09-06T18:33:59.875Z,16.50
2018-09-06T18:36:44.400Z,16.50
2018-09-06T18:39:25.586Z,16.40
2018-09-06T18:42:02.140Z,16.30
2018-09-06T18:44:39.233Z,16.20
2018-09-06T18:47:18.758Z,16.20
2018-09-06T18:50:17.397Z,16.20
2018-09-06T18:52:53.060Z,16.10
2018-09-06T18:55:34.671Z,16.20
2018-09-06T18:58:12.683Z,16.20
2018-09-06T19:03:48.174Z,16.20
2018-09-06T19:06:22.487Z,16.30
2018-09-06T19:12:05.652Z,16.30
2018-09-06T19:14:36.328Z,16.40
2018-09-06T19:17:06.869Z,16.40
2018-09-06T19:19:38.057Z,16.40
2018-09-06T19:22:09.569Z,16.40
2018-09-06T19:24:39.927Z,16.40
2018-09-06T19:27:10.514Z,16.50
2018-09-06T19:29:41.931Z,16.40
2018-09-06T19:32:12.845Z,16.40
2018-09-06T19:34:43.455Z,16.40
2018-09-06T19:37:14.840Z,16.40
2018-09-06T19:39:46.339Z,16.30
2018-09-06T19:42:18.131Z,16.20
2018-09-06T19:44:48.697Z,16.20
2018-09-06T19:47:20.488Z,16.20
2018-09-06T19:49:51.825Z,16.20
2018-09-06T19:52:23.719Z,16.20
2018-09-06T19:54:54.337Z,16.30
2018-09-06T19:57:25.805Z,16.40
2018-09-06T19:59:56.530Z,16.40
2018-09-06T20:02:27.162Z,16.40
2018-09-06T20:04:58.107Z,16.40
2018-09-06T20:07:29.465Z,16.40
2018-09-06T20:10:00.391Z,16.40
2018-09-06T20:12:31.349Z,16.40
2018-09-06T20:15:01.884Z,16.40
2018-09-06T20:17:33.673Z,16.40
2018-09-06T20:20:04.899Z,16.40
2018-09-06T20:22:35.461Z,16.40
2018-09-06T20:25:06.166Z,16.40
2018-09-06T20:27:37.600Z,16.40
2018-09-06T20:30:09.000Z,16.30
2018-09-06T20:32:40.400Z,16.30
2018-09-06T20:35:10.839Z,16.30
2018-09-06T20:37:41.939Z,16.30
2018-09-06T20:40:12.359Z,16.30
2018-09-06T20:42:42.515Z,16.30
2018-09-06T20:45:12.992Z,16.30
2018-09-06T20:47:44.224Z,16.30
2018-09-06T20:50:15.173Z,16.30
2018-09-06T20:52:45.939Z,16.30
2018-09-06T20:55:20.558Z,16.30
2018-09-06T20:57:52.155Z,16.30
2018-09-06T21:00:21.657Z,16.30
2018-09-06T21:02:52.403Z,16.30
2018-09-06T21:05:23.969Z,16.30
2018-09-06T21:07:54.938Z,16.30
2018-09-06T21:10:26.075Z,16.30
2018-09-06T21:12:56.653Z,16.30
2018-09-06T21:15:34.821Z,16.20
2018-09-06T21:18:06.551Z,16.20
2018-09-06T21:20:38.218Z,16.20
2018-09-06T21:23:08.984Z,16.20
2018-09-06T21:25:39.939Z,16.20
2018-09-06T21:28:10.450Z,16.20
2018-09-06T21:30:41.751Z,16.20
2018-09-06T21:33:12.361Z,16.20
2018-09-06T21:35:44.133Z,16.20
2018-09-06T21:38:14.969Z,16.20
2018-09-06T21:40:45.348Z,16.20
2018-09-06T21:43:16.395Z,16.30
2018-09-06T21:45:47.882Z,16.30
2018-09-06T21:48:18.407Z,16.40
2018-09-06T21:50:49.165Z,16.40
2018-09-06T21:53:18.707Z,16.50
2018-09-06T21:55:49.699Z,16.50
2018-09-06T21:58:21.359Z,16.50
2018-09-06T22:00:51.874Z,16.40
2018-09-06T22:03:28.105Z,16.40
2018-09-06T22:05:59.873Z,16.40
2018-09-06T22:08:31.099Z,16.40
2018-09-06T22:11:01.316Z,16.50
2018-09-06T22:13:32.401Z,16.60
2018-09-06T22:16:03.955Z,16.80
2018-09-06T22:18:35.106Z,17.00
2018-09-06T22:21:06.663Z,17.10
2018-09-06T22:23:38.349Z,17.20
2018-09-06T22:26:09.767Z,17.20
2018-09-06T22:28:40.871Z,17.10
2018-09-06T22:31:11.647Z,17.10
2018-09-06T22:33:43.429Z,17.10
2018-09-06T22:36:14.713Z,17.10
2018-09-06T22:38:46.065Z,17.00
2018-09-06T22:41:17.891Z,17.00
2018-09-06T22:43:49.431Z,17.00
2018-09-06T22:46:20.329Z,16.90
2018-09-06T22:48:51.691Z,16.90
2018-09-06T22:51:22.351Z,16.80
2018-09-06T22:53:54.005Z,16.70
2018-09-06T22:56:25.123Z,16.80
2018-09-06T22:58:55.925Z,16.80
2018-09-06T23:01:27.834Z,16.80
2018-09-06T23:03:59.643Z,16.90
2018-09-06T23:06:30.528Z,16.90
2018-09-06T23:09:01.525Z,16.80
2018-09-06T23:11:33.175Z,16.60
2018-09-06T23:14:05.137Z,16.60
2018-09-06T23:16:36.181Z,16.80
2018-09-06T23:19:07.214Z,16.80
2018-09-06T23:21:38.721Z,16.70
2018-09-06T23:24:10.088Z,16.70
2018-09-06T23:26:41.490Z,16.80
2018-09-06T23:29:13.245Z,16.90
2018-09-06T23:31:44.651Z,17.00
2018-09-06T23:34:16.301Z,17.00
2018-09-06T23:36:47.237Z,17.00
2018-09-06T23:39:18.897Z,16.90
2018-09-06T23:41:50.564Z,16.70
2018-09-06T23:44:21.567Z,16.50
2018-09-06T23:46:51.848Z,16.50
2018-09-06T23:49:23.271Z,16.40
2018-09-06T23:51:54.165Z,16.30
2018-09-06T23:54:24.773Z,16.10
2018-09-06T23:56:55.187Z,16.00
2018-09-06T23:59:26.192Z,15.80
